Boring, OR

10:58 AM PST on January 27, 2015 (GMT -0800)
Mr. Lightning | Change Station
CLOSE
Current Station
Personal Weather Station
Location: Damascus, OR
Elevation: 600 ft
Nearby Weather Stations

Elev 600 ft 45.43 °N, 122.42 °W | Updated 0 second ago

Overcast
Overcast
44.9 °F
Feels Like 45 °F
N
0.0
Wind Variable Wind from East
Gusts 0.0 mph

Today
High -- | Low -- °F
--% Chance of Precip.
Yesterday
High -- | Low -- °F
Precip. -- in
7:36 AM 5:09 PM
First Quarter, 56% visible
Pressure 30.14 in
Visibility 10.0 miles
Clouds Overcast 800 ft
Windchill 45 °F
Dew Point 43 °F
Humidity 93%
Rainfall 0.00 in
Snow Depth Not available.
UV 1 out of 12
Pollen 2.10 out of 12
Air Quality Not available.
Flu Activity Not available.
METAR KTTD 271853Z 00000KT 10SM OVC008 08/05 A3014 RMK AO2 SLP206 T00780050

More Conditions Fewer Conditions

Pressure 30.14 in
Visibility 10.0 miles
Clouds Overcast 800 ft
Windchill 45 °F
Dew Point 43 °F
Humidity 93%
Rainfall 0.00 in
Snow Depth Not available.
UV 1 out of 12
Pollen 2.10 out of 12
Air Quality Not available.
Flu Activity Not available.
METAR KTTD 271853Z 00000KT 10SM OVC008 08/05 A3014 RMK AO2 SLP206 T00780050

More Conditions Fewer Conditions

Nowcast | as of 9:01 am PST on January 27, 2015

At 9 am...areas of fog continue across the central Willamette Valley...the Portland and Vancouver greater Metro areas...and the lower Columbia region along Interstate 5 north of Portland. The fog is less extensive than the last 2 mornings...but there are still some areas with visibilities near or below one quarter mile...such as McMinnville...Aurora...the Portland Airport... Hillsboro and Scappoose. Slow down and use caution when driving through the remaining foggy areas this morning.

×

10-Day Weather Forecast

Almanac

Astronomy

Jan. 27, 2015 Rise Set
Actual Time
Civil Twilight
Nautical Twilight
Astronomical Twilight
Moon
Length of Visible Light
Length of Day
Tomorrow will be .
, % of the Moon is Illuminated

Today's Extremes

State Highs State Lows

Community

WunderPhotos

Upload Photos

1,790,776 photos uploaded!

WunderBlogs® & News

Nearby

Air Quality

  Air Quality AQ Index Pollutant
Not available.

Snow Depth

Station Depth Elevation

Earthquake Activity

City Distance Mag. Time & Date
Minimum magnitude displayed is 2.5.

Coastal Water Temperatures

Place Temperature

Nearby Weather Stations